createdAt,value
2023-01-05T00:01:13.807Z,5.76
2023-01-05T00:03:41.768Z,5.70
2023-01-05T00:06:15.344Z,5.66
2023-01-05T00:08:44.038Z,5.63
2023-01-05T00:11:34.022Z,5.60
2023-01-05T00:14:21.239Z,5.59
2023-01-05T00:17:07.697Z,5.55
2023-01-05T00:19:54.469Z,5.52
2023-01-05T00:22:31.320Z,5.53
2023-01-05T00:25:09.323Z,5.54
2023-01-05T00:27:32.830Z,5.53
2023-01-05T00:30:00.976Z,5.56
2023-01-05T00:32:29.005Z,5.56
2023-01-05T00:34:58.432Z,5.60
2023-01-05T00:37:32.512Z,5.62
2023-01-05T00:40:00.191Z,5.62
2023-01-05T00:42:27.920Z,5.61
2023-01-05T00:44:55.593Z,5.52
2023-01-05T00:47:23.383Z,5.46
2023-01-05T00:49:51.073Z,5.43
2023-01-05T00:52:18.655Z,5.35
2023-01-05T00:54:46.185Z,5.31
2023-01-05T00:57:14.560Z,5.30
2023-01-05T00:59:42.446Z,5.28
2023-01-05T01:02:10.361Z,5.27
2023-01-05T01:04:39.117Z,5.25
2023-01-05T01:07:07.106Z,5.22
2023-01-05T01:09:35.117Z,5.16
2023-01-05T01:12:03.538Z,5.12
2023-01-05T01:14:31.398Z,5.03
2023-01-05T01:16:59.187Z,4.95
2023-01-05T01:19:27.963Z,4.94
2023-01-05T01:21:55.720Z,4.95
2023-01-05T01:24:27.205Z,4.96
2023-01-05T01:26:55.653Z,4.94
2023-01-05T01:29:24.241Z,4.92
2023-01-05T01:31:53.884Z,4.92
2023-01-05T01:34:22.727Z,4.94
2023-01-05T01:36:50.535Z,4.99
2023-01-05T01:39:19.956Z,5.03
2023-01-05T01:41:49.475Z,5.07
2023-01-05T01:44:50.877Z,5.11
2023-01-05T01:47:25.777Z,5.16
2023-01-05T01:49:55.488Z,5.23
2023-01-05T01:52:25.321Z,5.28
2023-01-05T01:54:53.580Z,5.35
2023-01-05T01:57:22.461Z,5.37
2023-01-05T01:59:50.766Z,5.41
2023-01-05T02:02:20.781Z,5.39
2023-01-05T02:04:49.764Z,5.36
2023-01-05T02:07:17.478Z,5.37
2023-01-05T02:09:46.404Z,5.38
2023-01-05T02:12:52.813Z,5.36
2023-01-05T02:15:41.120Z,5.37
2023-01-05T02:18:35.907Z,5.34
2023-01-05T02:21:21.353Z,5.32
2023-01-05T02:24:08.005Z,5.28
2023-01-05T02:26:45.403Z,5.26
2023-01-05T02:29:50.518Z,5.25
2023-01-05T02:32:22.523Z,5.19
2023-01-05T02:35:03.898Z,5.16
2023-01-05T02:37:48.472Z,5.14
2023-01-05T02:40:21.482Z,5.11
2023-01-05T02:42:52.916Z,5.09
2023-01-05T02:45:22.482Z,5.05
2023-01-05T02:47:51.529Z,5.05
2023-01-05T02:50:30.765Z,5.05
2023-01-05T02:53:11.505Z,5.03
2023-01-05T02:55:52.912Z,5.03
2023-01-05T02:58:30.631Z,5.03
2023-01-05T03:01:17.723Z,5.01
2023-01-05T03:04:04.237Z,5.03
2023-01-05T03:06:43.311Z,5.09
2023-01-05T03:09:26.936Z,5.12
2023-01-05T03:12:50.407Z,5.17
2023-01-05T03:15:34.275Z,5.23
2023-01-05T03:18:16.729Z,5.25
2023-01-05T03:20:51.219Z,5.29
2023-01-05T03:23:47.173Z,5.36
2023-01-05T03:26:40.637Z,5.36
2023-01-05T03:29:39.042Z,5.39
2023-01-05T03:32:42.031Z,5.43
2023-01-05T03:35:33.655Z,5.43
2023-01-05T03:38:28.722Z,5.42
2023-01-05T03:41:00.488Z,5.41
2023-01-05T03:43:29.104Z,5.41
2023-01-05T03:45:57.823Z,5.42
2023-01-05T03:48:28.870Z,5.40
2023-01-05T03:50:56.905Z,5.42
2023-01-05T03:53:25.420Z,5.39
2023-01-05T03:55:53.927Z,5.38
2023-01-05T03:58:22.137Z,5.35
2023-01-05T04:00:50.207Z,5.31
2023-01-05T04:03:18.591Z,5.30
2023-01-05T04:05:46.715Z,5.28
2023-01-05T04:08:16.443Z,5.25
2023-01-05T04:10:44.870Z,5.23
2023-01-05T04:13:13.422Z,5.20
2023-01-05T04:15:42.831Z,5.20
2023-01-05T04:18:10.774Z,5.17
2023-01-05T04:20:38.956Z,5.16
2023-01-05T04:23:07.258Z,5.13
2023-01-05T04:25:35.014Z,5.12
2023-01-05T04:28:04.827Z,5.11
2023-01-05T04:30:33.776Z,5.08
2023-01-05T04:33:01.443Z,5.10
2023-01-05T04:35:29.584Z,5.11
2023-01-05T04:37:57.344Z,5.14
2023-01-05T04:40:24.895Z,5.13
2023-01-05T04:42:53.643Z,5.15
2023-01-05T04:45:21.638Z,5.17
2023-01-05T04:47:51.966Z,5.20
2023-01-05T04:50:21.159Z,5.20
2023-01-05T04:52:49.233Z,5.25
2023-01-05T04:55:17.909Z,5.27
2023-01-05T04:57:45.690Z,5.28
2023-01-05T05:00:14.342Z,5.28
2023-01-05T05:02:43.864Z,5.28
2023-01-05T05:05:13.779Z,5.25
2023-01-05T05:07:41.474Z,5.21
2023-01-05T05:10:10.143Z,5.17
2023-01-05T05:12:39.359Z,5.12
2023-01-05T05:15:09.067Z,5.06
2023-01-05T05:17:36.698Z,5.02
2023-01-05T05:20:06.072Z,4.97
2023-01-05T05:22:33.911Z,4.96
2023-01-05T05:25:01.983Z,4.92
2023-01-05T05:27:30.377Z,4.89
2023-01-05T05:29:58.089Z,4.87
2023-01-05T05:32:25.833Z,4.85
2023-01-05T05:34:53.563Z,4.83
2023-01-05T05:37:21.138Z,4.83
2023-01-05T05:39:48.879Z,4.83
2023-01-05T05:42:16.415Z,4.83
2023-01-05T05:44:44.145Z,4.83
2023-01-05T05:47:11.726Z,4.81
2023-01-05T05:49:39.706Z,4.76
2023-01-05T05:52:07.525Z,4.75
2023-01-05T05:54:35.297Z,4.76
2023-01-05T05:57:02.882Z,4.73
2023-01-05T05:59:30.369Z,4.72
2023-01-05T06:01:58.382Z,4.74
2023-01-05T06:04:26.348Z,4.78
2023-01-05T06:06:54.185Z,4.85
2023-01-05T06:09:21.775Z,4.93
2023-01-05T06:11:49.565Z,5.01
2023-01-05T06:14:17.165Z,5.07
2023-01-05T06:16:45.306Z,5.16
2023-01-05T06:19:12.923Z,5.25
2023-01-05T06:21:40.541Z,5.37
2023-01-05T06:24:09.281Z,5.44
2023-01-05T06:26:36.712Z,5.49
2023-01-05T06:29:04.221Z,5.51
2023-01-05T06:31:31.832Z,5.51
2023-01-05T06:33:59.307Z,5.49
2023-01-05T06:36:27.074Z,5.49
2023-01-05T06:38:54.842Z,5.48
2023-01-05T06:41:22.387Z,5.41
2023-01-05T06:43:50.028Z,5.36
2023-01-05T06:46:17.409Z,5.37
2023-01-05T06:48:45.077Z,5.37
2023-01-05T06:51:12.733Z,5.38
2023-01-05T06:53:40.440Z,5.38
2023-01-05T06:56:08.104Z,5.38
2023-01-05T06:58:35.867Z,5.38
2023-01-05T07:01:03.813Z,5.37
2023-01-05T07:03:31.718Z,5.38
2023-01-05T07:05:59.391Z,5.38
2023-01-05T07:08:27.395Z,5.38
2023-01-05T07:10:55.247Z,5.37
2023-01-05T07:13:23.190Z,5.37
2023-01-05T07:15:50.785Z,5.35
2023-01-05T07:18:18.261Z,5.33
2023-01-05T07:20:45.807Z,5.33
2023-01-05T07:23:13.451Z,5.32
2023-01-05T07:25:41.089Z,5.32
2023-01-05T07:28:08.932Z,5.35
2023-01-05T07:30:36.578Z,5.38
2023-01-05T07:33:04.770Z,5.45
2023-01-05T07:35:32.654Z,5.51
2023-01-05T07:38:00.101Z,5.58
2023-01-05T07:40:28.108Z,5.64
2023-01-05T07:42:55.549Z,5.72
2023-01-05T07:45:23.391Z,5.80
2023-01-05T07:47:50.916Z,5.87
2023-01-05T07:50:21.442Z,5.96
2023-01-05T07:52:48.921Z,6.03
2023-01-05T07:55:16.845Z,6.10
2023-01-05T07:57:44.423Z,6.15
2023-01-05T08:00:14.462Z,6.18
2023-01-05T08:02:43.310Z,6.23
2023-01-05T08:05:11.189Z,6.25
2023-01-05T08:07:38.747Z,6.26
2023-01-05T08:10:25.761Z,6.28
2023-01-05T08:13:12.250Z,6.30
2023-01-05T08:15:39.755Z,6.33
2023-01-05T08:18:07.321Z,6.36
2023-01-05T08:20:34.793Z,6.30
2023-01-05T08:23:02.898Z,6.25
2023-01-05T08:25:30.346Z,6.24
2023-01-05T08:27:59.444Z,6.24
2023-01-05T08:30:27.169Z,6.25
2023-01-05T08:32:54.679Z,6.25
2023-01-05T08:35:22.482Z,6.18
2023-01-05T08:37:50.482Z,6.18
2023-01-05T08:40:18.122Z,6.19
2023-01-05T08:42:47.502Z,6.19
2023-01-05T08:45:16.084Z,6.18
2023-01-05T08:47:44.493Z,6.17
2023-01-05T08:50:12.545Z,6.18
2023-01-05T08:52:40.674Z,6.19
2023-01-05T08:55:08.791Z,6.21
2023-01-05T08:57:36.338Z,6.27
2023-01-05T09:00:05.768Z,6.32
2023-01-05T09:02:33.549Z,6.39
2023-01-05T09:05:02.499Z,6.45
2023-01-05T09:07:30.134Z,6.53
2023-01-05T09:09:57.740Z,6.61
2023-01-05T09:12:30.921Z,6.68
2023-01-05T09:14:54.852Z,6.73
2023-01-05T09:17:22.693Z,6.81
2023-01-05T09:19:50.150Z,6.86
2023-01-05T09:22:18.510Z,6.88
2023-01-05T09:24:46.601Z,6.84
2023-01-05T09:27:15.232Z,6.83
2023-01-05T09:29:42.675Z,6.81
2023-01-05T09:32:11.065Z,6.79
2023-01-05T09:34:38.499Z,6.79
2023-01-05T09:37:06.044Z,6.79
2023-01-05T09:39:33.764Z,6.71
2023-01-05T09:42:05.404Z,6.68
2023-01-05T09:44:44.255Z,6.68
2023-01-05T09:47:40.553Z,6.67
2023-01-05T09:50:18.531Z,6.65
2023-01-05T09:52:47.137Z,6.64
2023-01-05T09:55:19.138Z,6.66
2023-01-05T09:57:57.682Z,6.66
2023-01-05T10:00:26.645Z,6.65
2023-01-05T10:03:01.434Z,6.64
2023-01-05T10:05:32.312Z,6.65
2023-01-05T10:08:07.737Z,6.66
2023-01-05T10:11:26.405Z,6.67
2023-01-05T10:14:16.236Z,6.68
2023-01-05T10:16:46.326Z,6.70
2023-01-05T10:19:16.928Z,6.69
2023-01-05T10:22:02.188Z,6.70
2023-01-05T10:24:40.734Z,6.70
2023-01-05T10:27:28.721Z,6.72
2023-01-05T10:30:04.751Z,6.73
2023-01-05T10:33:26.855Z,6.76
2023-01-05T10:36:00.662Z,6.81
2023-01-05T10:38:25.469Z,6.86
2023-01-05T10:41:07.881Z,6.94
2023-01-05T10:44:04.960Z,7.02
2023-01-05T10:46:40.681Z,7.12
2023-01-05T10:49:02.210Z,7.22
2023-01-05T10:51:33.488Z,7.32
2023-01-05T10:54:03.524Z,7.43
2023-01-05T10:56:32.631Z,7.55
2023-01-05T10:59:09.877Z,7.64
2023-01-05T11:01:42.142Z,7.72
2023-01-05T11:04:34.008Z,7.78
2023-01-05T11:06:52.363Z,7.87
2023-01-05T11:09:23.718Z,7.90
2023-01-05T11:11:58.889Z,7.91
2023-01-05T11:14:29.438Z,7.88
2023-01-05T11:17:04.310Z,7.84
2023-01-05T11:19:40.182Z,7.77
2023-01-05T11:22:36.537Z,7.73
2023-01-05T11:25:28.945Z,7.69
2023-01-05T11:28:15.407Z,7.65
2023-01-05T11:30:59.459Z,7.56
2023-01-05T11:33:29.652Z,7.48
2023-01-05T11:35:58.612Z,7.43
2023-01-05T11:38:31.372Z,7.39
2023-01-05T11:41:00.519Z,7.35
2023-01-05T11:43:31.812Z,7.32
2023-01-05T11:46:04.651Z,7.28
2023-01-05T11:48:35.487Z,7.24
2023-01-05T11:51:03.421Z,7.20
2023-01-05T11:53:38.526Z,7.13
2023-01-05T11:56:20.891Z,7.08
2023-01-05T11:58:54.641Z,7.03
2023-01-05T12:01:52.721Z,7.01
2023-01-05T12:04:55.571Z,7.02
2023-01-05T12:07:28.754Z,7.07
2023-01-05T12:10:21.739Z,7.14
2023-01-05T12:13:23.333Z,7.24
2023-01-05T12:16:31.125Z,7.27
2023-01-05T12:19:30.113Z,7.36
2023-01-05T12:22:19.957Z,7.48
2023-01-05T12:24:52.983Z,7.57
2023-01-05T12:28:05.056Z,7.63
2023-01-05T12:36:33.678Z,7.57
2023-01-05T12:39:31.573Z,7.56
2023-01-05T12:42:25.312Z,7.54
2023-01-05T12:45:32.380Z,7.47
2023-01-05T12:48:11.486Z,7.35
2023-01-05T12:50:55.971Z,7.23
2023-01-05T12:53:41.102Z,7.14
2023-01-05T12:56:32.419Z,7.04
2023-01-05T12:59:28.237Z,6.97
2023-01-05T13:02:18.522Z,6.95
2023-01-05T13:04:56.208Z,6.94
2023-01-05T13:07:29.255Z,6.95
2023-01-05T13:10:03.363Z,6.88
2023-01-05T13:12:37.196Z,6.84
2023-01-05T13:15:21.407Z,6.81
2023-01-05T13:17:53.603Z,6.79
2023-01-05T13:20:32.609Z,6.79
2023-01-05T13:23:08.537Z,6.82
2023-01-05T13:26:05.657Z,6.85
2023-01-05T13:28:35.098Z,6.90
2023-01-05T13:31:45.425Z,6.97
2023-01-05T13:34:47.163Z,7.01
2023-01-05T13:37:41.056Z,7.05
2023-01-05T13:40:30.463Z,7.11
2023-01-05T13:43:30.317Z,7.16
2023-01-05T13:46:30.265Z,7.20
2023-01-05T13:49:37.056Z,7.19
2023-01-05T13:52:28.437Z,7.16
2023-01-05T13:55:02.469Z,7.11
2023-01-05T13:57:41.305Z,7.11
2023-01-05T14:00:29.699Z,7.13
2023-01-05T14:03:08.738Z,7.05
2023-01-05T14:05:57.646Z,6.92
2023-01-05T14:08:36.136Z,6.78
2023-01-05T14:11:17.671Z,6.65
2023-01-05T14:14:08.081Z,6.53
2023-01-05T14:16:41.825Z,6.39
2023-01-05T14:22:22.786Z,6.26
2023-01-05T14:24:50.461Z,6.32
2023-01-05T14:27:21.525Z,6.39
2023-01-05T14:29:59.582Z,6.49
2023-01-05T14:32:41.933Z,6.58
2023-01-05T14:35:23.591Z,6.66
2023-01-05T14:37:56.693Z,6.72
2023-01-05T14:40:41.746Z,6.73
2023-01-05T14:43:32.012Z,6.78
2023-01-05T14:46:10.573Z,6.84
2023-01-05T14:49:00.793Z,6.93
2023-01-05T14:51:33.128Z,6.97
2023-01-05T14:54:04.279Z,6.98
2023-01-05T14:56:35.348Z,6.95
2023-01-05T14:59:19.441Z,6.84
2023-01-05T15:02:04.409Z,6.73
2023-01-05T15:04:37.203Z,6.66
2023-01-05T15:07:26.200Z,6.63
2023-01-05T15:10:28.335Z,6.61
2023-01-05T15:16:18.326Z,6.59
2023-01-05T15:19:06.279Z,6.54
2023-01-05T15:22:07.957Z,6.51
2023-01-05T15:24:56.110Z,6.48
2023-01-05T15:27:50.040Z,6.42
2023-01-05T15:30:44.273Z,6.43
2023-01-05T15:33:37.308Z,6.44
2023-01-05T15:36:06.583Z,6.49
2023-01-05T15:38:46.578Z,6.52
2023-01-05T15:41:17.868Z,6.56
2023-01-05T15:43:46.776Z,6.62
2023-01-05T15:46:22.247Z,6.68
2023-01-05T15:48:53.233Z,6.76
2023-01-05T15:51:30.744Z,6.84
2023-01-05T15:54:01.743Z,6.92
2023-01-05T15:56:41.291Z,6.99
2023-01-05T15:59:29.055Z,7.02
2023-01-05T16:01:56.668Z,7.05
2023-01-05T16:04:24.933Z,7.04
2023-01-05T16:06:59.967Z,7.03
2023-01-05T16:09:35.050Z,7.00
2023-01-05T16:12:10.947Z,6.97
2023-01-05T16:14:45.288Z,6.89
2023-01-05T16:17:21.559Z,6.86
2023-01-05T16:20:07.414Z,6.83
2023-01-05T16:22:40.739Z,6.82
2023-01-05T16:25:24.580Z,6.81
2023-01-05T16:27:58.587Z,6.79
2023-01-05T16:30:41.721Z,6.77
2023-01-05T16:33:35.487Z,6.78
2023-01-05T16:36:21.940Z,6.78
2023-01-05T16:38:49.807Z,6.78
2023-01-05T16:41:26.070Z,6.81
2023-01-05T16:43:57.865Z,6.83
2023-01-05T16:46:33.197Z,6.90
2023-01-05T16:49:41.153Z,6.97
2023-01-05T16:52:09.037Z,7.01
2023-01-05T16:54:40.196Z,7.04
2023-01-05T16:57:35.485Z,7.09
2023-01-05T17:00:06.649Z,7.12
2023-01-05T17:02:48.509Z,7.18
2023-01-05T17:05:22.465Z,7.20
2023-01-05T17:08:04.489Z,7.21
2023-01-05T17:10:32.456Z,7.21
2023-01-05T17:13:07.631Z,7.18
2023-01-05T17:15:36.439Z,7.18
2023-01-05T17:18:24.133Z,7.16
2023-01-05T17:20:54.573Z,7.18
2023-01-05T17:23:35.712Z,7.23
2023-01-05T17:26:07.356Z,7.28
2023-01-05T17:28:35.058Z,7.34
2023-01-05T17:31:03.529Z,7.38
2023-01-05T17:33:31.189Z,7.40
2023-01-05T17:35:58.763Z,7.47
2023-01-05T17:38:26.205Z,7.52
2023-01-05T17:40:53.789Z,7.57
2023-01-05T17:43:21.317Z,7.62
2023-01-05T17:45:49.129Z,7.66
2023-01-05T17:48:17.038Z,7.70
2023-01-05T17:50:45.550Z,7.70
2023-01-05T17:53:13.046Z,7.72
2023-01-05T17:55:42.506Z,7.71
2023-01-05T17:58:13.910Z,7.71
2023-01-05T18:00:43.933Z,7.69
2023-01-05T18:03:16.927Z,7.66
2023-01-05T18:05:44.788Z,7.64
2023-01-05T18:08:12.533Z,7.63
2023-01-05T18:13:09.607Z,7.50
2023-01-05T18:15:44.048Z,7.41
2023-01-05T18:18:13.096Z,7.36
2023-01-05T18:20:42.048Z,7.33
2023-01-05T18:23:10.417Z,7.30
2023-01-05T18:25:39.086Z,7.30
2023-01-05T18:28:07.383Z,7.32
2023-01-05T18:30:35.466Z,7.35
2023-01-05T18:33:03.311Z,7.42
2023-01-05T18:35:31.154Z,7.48
2023-01-05T18:38:00.645Z,7.52
2023-01-05T18:40:28.934Z,7.56
2023-01-05T18:42:56.505Z,7.56
2023-01-05T18:45:38.478Z,7.58
2023-01-05T18:47:58.119Z,7.58
2023-01-05T18:50:26.110Z,7.58
2023-01-05T18:52:53.977Z,7.55
2023-01-05T18:55:21.898Z,7.48
2023-01-05T18:57:49.539Z,7.41
2023-01-05T19:00:17.660Z,7.34
2023-01-05T19:02:45.107Z,7.28
2023-01-05T19:05:12.869Z,7.24
2023-01-05T19:07:41.304Z,7.18
2023-01-05T19:10:09.452Z,7.13
2023-01-05T19:12:37.891Z,7.09
2023-01-05T19:15:06.410Z,7.06
2023-01-05T19:17:34.370Z,7.01
2023-01-05T19:20:02.178Z,6.97
2023-01-05T19:22:29.881Z,6.97
2023-01-05T19:24:58.388Z,6.97
2023-01-05T19:27:27.596Z,6.98
2023-01-05T19:29:55.110Z,7.02
2023-01-05T19:32:23.662Z,7.04
2023-01-05T19:34:51.379Z,7.09
2023-01-05T19:37:18.875Z,7.14
2023-01-05T19:39:46.541Z,7.20
2023-01-05T19:42:14.259Z,7.27
2023-01-05T19:44:41.642Z,7.34
2023-01-05T19:47:09.199Z,7.40
2023-01-05T19:49:36.709Z,7.44
2023-01-05T19:52:04.676Z,7.50
2023-01-05T19:54:32.289Z,7.53
2023-01-05T19:56:59.865Z,7.56
2023-01-05T19:59:29.391Z,7.56
2023-01-05T20:01:57.216Z,7.55
2023-01-05T20:04:25.073Z,7.54
2023-01-05T20:06:53.116Z,7.53
2023-01-05T20:09:21.601Z,7.50
2023-01-05T20:11:54.764Z,7.49
2023-01-05T20:14:32.301Z,7.47
2023-01-05T20:17:06.184Z,7.42
2023-01-05T20:19:35.456Z,7.37
2023-01-05T20:22:07.147Z,7.33
2023-01-05T20:24:36.799Z,7.28
2023-01-05T20:27:09.388Z,7.23
2023-01-05T20:29:37.434Z,7.16
2023-01-05T20:32:15.770Z,7.12
2023-01-05T20:34:45.738Z,7.07
2023-01-05T20:37:13.289Z,7.06
2023-01-05T20:39:41.738Z,7.05
2023-01-05T20:42:11.011Z,7.06
2023-01-05T20:44:42.705Z,7.08
2023-01-05T20:47:11.377Z,7.10
2023-01-05T20:49:40.126Z,7.14
2023-01-05T20:52:10.162Z,7.18
2023-01-05T20:54:39.652Z,7.24
2023-01-05T20:57:07.953Z,7.30
2023-01-05T20:59:41.103Z,7.32
2023-01-05T21:02:22.442Z,7.35
2023-01-05T21:04:41.296Z,7.40
2023-01-05T21:07:08.835Z,7.40
2023-01-05T21:09:36.496Z,7.38
2023-01-05T21:12:05.198Z,7.36
2023-01-05T21:14:33.011Z,7.32
2023-01-05T21:17:00.722Z,7.29
2023-01-05T21:19:28.258Z,7.25
2023-01-05T21:21:57.546Z,7.22
2023-01-05T21:24:26.341Z,7.19
2023-01-05T21:26:54.623Z,7.20
2023-01-05T21:29:25.326Z,7.15
2023-01-05T21:31:56.696Z,7.11
2023-01-05T21:34:25.335Z,7.07
2023-01-05T21:36:52.991Z,7.08
2023-01-05T21:39:24.276Z,7.05
2023-01-05T21:42:11.693Z,7.05
2023-01-05T21:44:39.981Z,7.05
2023-01-05T21:47:08.075Z,7.08
2023-01-05T21:49:36.367Z,7.09
2023-01-05T21:52:24.092Z,7.14
2023-01-05T21:55:10.322Z,7.13
2023-01-05T21:57:37.929Z,7.18
2023-01-05T22:00:06.989Z,7.23
2023-01-05T22:02:34.696Z,7.27
2023-01-05T22:05:02.662Z,7.27
2023-01-05T22:07:30.427Z,7.27
2023-01-05T22:09:58.210Z,7.28
2023-01-05T22:12:25.800Z,7.26
2023-01-05T22:14:53.487Z,7.23
2023-01-05T22:17:21.231Z,7.23
2023-01-05T22:19:48.746Z,7.21
2023-01-05T22:22:16.368Z,7.20
2023-01-05T22:24:44.176Z,7.23
2023-01-05T22:27:11.804Z,7.24
2023-01-05T22:29:40.296Z,7.22
2023-01-05T22:32:07.995Z,7.22
2023-01-05T22:34:36.735Z,7.22
2023-01-05T22:37:04.422Z,7.21
2023-01-05T22:39:32.033Z,7.23
2023-01-05T22:41:59.774Z,7.21
2023-01-05T22:44:27.287Z,7.24
2023-01-05T22:46:56.923Z,7.27
2023-01-05T22:49:24.458Z,7.29
2023-01-05T22:51:51.932Z,7.32
2023-01-05T22:54:19.844Z,7.32
2023-01-05T22:56:47.388Z,7.34
2023-01-05T22:59:14.998Z,7.35
2023-01-05T23:01:44.459Z,7.39
2023-01-05T23:04:12.553Z,7.44
2023-01-05T23:06:40.779Z,7.50
2023-01-05T23:09:13.458Z,7.54
2023-01-05T23:11:44.709Z,7.55
2023-01-05T23:14:14.365Z,7.55
2023-01-05T23:16:42.126Z,7.54
2023-01-05T23:19:12.087Z,7.49
2023-01-05T23:21:39.877Z,7.50
2023-01-05T23:24:08.426Z,7.48
2023-01-05T23:26:36.118Z,7.49
2023-01-05T23:29:04.164Z,7.45
2023-01-05T23:31:31.631Z,7.43
2023-01-05T23:33:59.443Z,7.39
2023-01-05T23:36:27.180Z,7.31
2023-01-05T23:38:55.899Z,7.29
2023-01-05T23:41:23.470Z,7.25
2023-01-05T23:43:51.071Z,7.24
2023-01-05T23:46:21.110Z,7.22
2023-01-05T23:48:50.701Z,7.20
2023-01-05T23:51:18.670Z,7.22
2023-01-05T23:53:49.418Z,7.18
2023-01-05T23:56:28.325Z,7.20
2023-01-05T23:59:00.086Z,7.19
